createdAt,value
2022-10-30T00:00:50.694Z,74.90
2022-10-30T00:03:18.210Z,75.00
2022-10-30T00:05:47.513Z,75.10
2022-10-30T00:08:16.127Z,75.00
2022-10-30T00:10:43.705Z,75.10
2022-10-30T00:13:11.272Z,75.10
2022-10-30T00:15:38.800Z,75.20
2022-10-30T00:18:06.636Z,75.20
2022-10-30T00:20:35.699Z,75.20
2022-10-30T00:23:05.768Z,75.20
2022-10-30T00:25:34.405Z,75.30
2022-10-30T00:28:05.607Z,75.40
2022-10-30T00:30:32.880Z,75.30
2022-10-30T00:33:00.047Z,75.50
2022-10-30T00:35:27.105Z,75.40
2022-10-30T00:37:54.069Z,75.50
2022-10-30T00:40:21.397Z,75.60
2022-10-30T00:42:48.232Z,75.60
2022-10-30T00:45:18.110Z,76.40
2022-10-30T00:47:55.058Z,75.70
2022-10-30T00:50:30.743Z,75.70
2022-10-30T00:53:01.951Z,75.70
2022-10-30T00:55:40.286Z,75.80
2022-10-30T00:58:11.522Z,75.80
2022-10-30T01:00:42.245Z,76.00
2022-10-30T01:03:09.733Z,75.90
2022-10-30T01:05:37.010Z,75.90
2022-10-30T01:08:03.816Z,76.00
2022-10-30T01:10:30.649Z,76.00
2022-10-30T01:12:59.400Z,76.00
2022-10-30T01:15:40.209Z,76.10
2022-10-30T01:18:34.699Z,76.10
2022-10-30T01:21:12.074Z,76.00
2022-10-30T01:23:54.018Z,76.10
2022-10-30T01:26:39.848Z,76.20
2022-10-30T01:29:29.303Z,76.30
2022-10-30T01:32:06.893Z,76.30
2022-10-30T01:34:57.823Z,76.30
2022-10-30T01:37:42.242Z,76.40
2022-10-30T01:40:13.198Z,76.40
2022-10-30T01:42:48.991Z,76.60
2022-10-30T01:45:33.761Z,76.60
2022-10-30T01:48:09.139Z,76.60
2022-10-30T01:50:43.419Z,76.60
2022-10-30T01:53:33.596Z,76.60
2022-10-30T01:56:28.936Z,76.50
2022-10-30T01:59:25.603Z,76.50
2022-10-30T02:01:54.752Z,76.50
2022-10-30T02:04:21.880Z,76.70
2022-10-30T02:06:48.722Z,76.80
2022-10-30T02:09:19.048Z,76.80
2022-10-30T02:11:46.959Z,77.00
2022-10-30T02:14:19.839Z,77.00
2022-10-30T02:16:50.290Z,77.10
2022-10-30T02:19:17.624Z,77.20
2022-10-30T02:21:44.541Z,77.20
2022-10-30T02:24:11.241Z,77.10
2022-10-30T02:26:39.028Z,77.20
2022-10-30T02:29:05.971Z,77.30
2022-10-30T02:31:34.570Z,77.30
2022-10-30T02:34:01.412Z,77.40
2022-10-30T02:36:28.148Z,77.40
2022-10-30T02:38:55.330Z,77.40
2022-10-30T02:41:23.208Z,77.50
2022-10-30T02:43:51.704Z,77.60
2022-10-30T02:46:18.430Z,77.70
2022-10-30T02:48:45.205Z,77.80
2022-10-30T02:51:12.405Z,77.70
2022-10-30T02:53:39.191Z,77.90
2022-10-30T02:56:10.780Z,77.90
2022-10-30T02:58:37.485Z,77.90
2022-10-30T03:01:12.093Z,77.90
2022-10-30T03:03:39.660Z,78.00
2022-10-30T03:06:09.734Z,78.10
2022-10-30T03:08:36.976Z,78.20
2022-10-30T03:11:09.546Z,78.20
2022-10-30T03:13:37.490Z,78.20
2022-10-30T03:16:09.659Z,78.20
2022-10-30T03:18:36.923Z,78.30
2022-10-30T03:21:06.198Z,78.30
2022-10-30T03:23:33.243Z,78.40
2022-10-30T03:26:00.224Z,78.40
2022-10-30T03:28:28.838Z,78.50
2022-10-30T03:31:07.523Z,78.60
2022-10-30T03:33:34.940Z,78.50
2022-10-30T03:36:02.936Z,78.50
2022-10-30T03:38:29.985Z,78.70
2022-10-30T03:40:56.819Z,78.70
2022-10-30T03:43:23.569Z,78.80
2022-10-30T03:45:53.000Z,78.80
2022-10-30T03:48:24.172Z,78.90
2022-10-30T03:50:57.237Z,79.00
2022-10-30T03:53:26.339Z,78.90
2022-10-30T03:55:57.340Z,78.90
2022-10-30T03:58:24.077Z,78.90
2022-10-30T04:00:50.786Z,79.00
2022-10-30T04:03:17.532Z,79.00
2022-10-30T04:05:44.371Z,79.10
2022-10-30T04:08:13.422Z,79.10
2022-10-30T04:10:47.947Z,79.20
2022-10-30T04:13:17.246Z,79.20
2022-10-30T04:15:44.118Z,79.30
2022-10-30T04:18:16.375Z,79.20
2022-10-30T04:20:43.713Z,79.40
2022-10-30T04:23:17.489Z,79.40
2022-10-30T04:25:44.719Z,79.50
2022-10-30T04:28:12.061Z,79.40
2022-10-30T04:30:39.772Z,79.40
2022-10-30T04:33:10.104Z,79.50
2022-10-30T04:35:37.697Z,79.60
2022-10-30T04:38:15.382Z,79.60
2022-10-30T04:40:43.355Z,79.70
2022-10-30T04:43:11.306Z,79.80
2022-10-30T04:45:38.707Z,80.00
2022-10-30T04:48:12.298Z,80.00
2022-10-30T04:50:43.370Z,80.10
2022-10-30T04:53:15.471Z,80.60
2022-10-30T04:55:44.330Z,80.10
2022-10-30T04:58:12.331Z,80.20
2022-10-30T05:00:39.169Z,80.20
2022-10-30T05:03:06.011Z,80.20
2022-10-30T05:05:32.931Z,80.20
2022-10-30T05:08:00.113Z,80.30
2022-10-30T05:10:27.376Z,80.30
2022-10-30T05:12:54.430Z,80.40
2022-10-30T05:15:21.349Z,80.30
2022-10-30T05:17:52.437Z,80.30
2022-10-30T05:20:19.510Z,80.40
2022-10-30T05:22:46.573Z,80.40
2022-10-30T05:25:13.575Z,80.40
2022-10-30T05:27:40.335Z,80.40
2022-10-30T05:30:07.702Z,80.60
2022-10-30T05:32:34.570Z,80.50
2022-10-30T05:35:01.546Z,80.60
2022-10-30T05:37:28.465Z,80.70
2022-10-30T05:39:55.206Z,80.70
2022-10-30T05:42:21.944Z,80.70
2022-10-30T05:45:00.884Z,80.80
2022-10-30T05:47:28.128Z,80.90
2022-10-30T05:49:54.893Z,80.90
2022-10-30T05:52:21.712Z,80.90
2022-10-30T05:54:48.429Z,81.00
2022-10-30T05:57:15.197Z,81.00
2022-10-30T05:59:41.888Z,81.10
2022-10-30T06:02:08.979Z,81.10
2022-10-30T06:04:38.448Z,81.20
2022-10-30T06:07:05.301Z,81.20
2022-10-30T06:09:32.163Z,81.20
2022-10-30T06:11:59.016Z,81.30
2022-10-30T06:14:25.854Z,81.30
2022-10-30T06:16:52.666Z,82.20
2022-10-30T06:19:21.814Z,81.40
2022-10-30T06:21:48.605Z,81.50
2022-10-30T06:24:15.448Z,81.60
2022-10-30T06:26:42.173Z,81.70
2022-10-30T06:29:08.845Z,81.70
2022-10-30T06:31:35.763Z,81.70
2022-10-30T06:34:02.613Z,81.80
2022-10-30T06:36:29.655Z,81.80
2022-10-30T06:38:56.590Z,81.80
2022-10-30T06:41:26.145Z,81.70
2022-10-30T06:43:57.296Z,81.90
2022-10-30T06:46:27.071Z,82.60
2022-10-30T06:48:57.875Z,81.90
2022-10-30T06:51:24.920Z,82.00
2022-10-30T06:53:51.605Z,82.00
2022-10-30T06:56:18.332Z,82.10
2022-10-30T06:58:45.120Z,82.10
2022-10-30T07:01:11.909Z,82.10
2022-10-30T07:03:38.722Z,82.10
2022-10-30T07:06:05.795Z,82.10
2022-10-30T07:08:32.701Z,82.10
2022-10-30T07:10:59.562Z,82.10
2022-10-30T07:13:29.094Z,82.20
2022-10-30T07:15:55.864Z,82.20
2022-10-30T07:18:22.571Z,82.20
2022-10-30T07:21:07.111Z,82.30
2022-10-30T07:23:33.840Z,82.50
2022-10-30T07:26:03.822Z,82.50
2022-10-30T07:28:31.687Z,82.40
2022-10-30T07:30:59.085Z,82.40
2022-10-30T07:33:26.218Z,82.50
2022-10-30T07:35:52.946Z,82.40
2022-10-30T07:38:19.660Z,82.40
2022-10-30T07:40:53.429Z,82.40
2022-10-30T07:43:20.216Z,82.50
2022-10-30T07:45:49.691Z,82.40
2022-10-30T07:48:16.554Z,82.50
2022-10-30T07:50:43.307Z,82.50
2022-10-30T07:53:10.063Z,82.40
2022-10-30T07:55:36.793Z,82.50
2022-10-30T07:58:03.535Z,82.50
2022-10-30T08:00:39.088Z,82.60
2022-10-30T08:03:06.581Z,82.50
2022-10-30T08:05:33.289Z,82.60
2022-10-30T08:08:00.266Z,83.10
2022-10-30T08:10:27.622Z,83.20
2022-10-30T08:12:54.560Z,82.70
2022-10-30T08:15:21.491Z,82.00
2022-10-30T08:17:49.780Z,81.20
2022-10-30T08:20:19.468Z,79.70
2022-10-30T08:22:51.303Z,78.00
2022-10-30T08:25:20.341Z,76.80
2022-10-30T08:27:58.570Z,76.10
2022-10-30T08:30:30.750Z,75.80
2022-10-30T08:33:02.842Z,74.70
2022-10-30T08:35:29.996Z,73.90
2022-10-30T08:37:58.007Z,73.30
2022-10-30T08:40:26.478Z,72.70
2022-10-30T08:42:55.040Z,72.50
2022-10-30T08:45:29.940Z,72.60
2022-10-30T08:48:01.155Z,72.80
2022-10-30T08:50:28.313Z,73.40
2022-10-30T08:52:55.250Z,73.90
2022-10-30T08:55:23.391Z,74.20
2022-10-30T08:57:50.119Z,74.70
2022-10-30T09:00:16.997Z,75.00
2022-10-30T09:02:45.421Z,75.20
2022-10-30T09:05:12.418Z,76.50
2022-10-30T09:07:39.168Z,76.00
2022-10-30T09:10:06.586Z,76.00
2022-10-30T09:12:33.457Z,76.30
2022-10-30T09:15:00.312Z,76.50
2022-10-30T09:17:27.208Z,76.20
2022-10-30T09:19:54.054Z,76.20
2022-10-30T09:22:20.786Z,76.20
2022-10-30T09:24:48.827Z,76.10
2022-10-30T09:27:15.706Z,76.10
2022-10-30T09:29:42.460Z,76.10
2022-10-30T09:32:10.558Z,75.90
2022-10-30T09:34:38.421Z,76.00
2022-10-30T09:37:05.483Z,76.10
2022-10-30T09:39:34.883Z,75.80
2022-10-30T09:42:22.309Z,75.60
2022-10-30T09:45:08.092Z,75.60
2022-10-30T09:47:44.300Z,75.50
2022-10-30T09:50:47.133Z,75.60
2022-10-30T09:53:23.783Z,75.50
2022-10-30T09:56:10.841Z,75.60
2022-10-30T09:59:01.693Z,75.40
2022-10-30T10:01:47.975Z,75.20
2022-10-30T10:04:27.018Z,74.70
2022-10-30T10:07:04.410Z,74.60
2022-10-30T10:09:34.616Z,74.40
2022-10-30T10:12:26.286Z,74.10
2022-10-30T10:14:55.498Z,74.20
2022-10-30T10:17:33.612Z,73.90
2022-10-30T10:20:02.115Z,74.10
2022-10-30T10:22:46.823Z,74.00
2022-10-30T10:25:17.178Z,73.90
2022-10-30T10:28:21.735Z,73.30
2022-10-30T10:31:04.437Z,73.10
2022-10-30T10:33:58.504Z,72.80
2022-10-30T10:36:54.154Z,72.40
2022-10-30T10:39:29.169Z,72.40
2022-10-30T10:42:08.277Z,71.80
2022-10-30T10:45:12.784Z,71.40
2022-10-30T10:48:08.279Z,71.50
2022-10-30T10:50:48.665Z,71.30
2022-10-30T10:53:22.692Z,71.00
2022-10-30T10:55:52.832Z,70.70
2022-10-30T10:58:36.469Z,70.70
2022-10-30T11:01:09.420Z,69.70
2022-10-30T11:03:52.734Z,69.80
2022-10-30T11:06:28.534Z,69.60
2022-10-30T11:09:14.371Z,69.50
2022-10-30T11:11:41.040Z,69.30
2022-10-30T11:14:24.846Z,69.50
2022-10-30T11:17:13.365Z,68.70
2022-10-30T11:19:40.297Z,68.60
2022-10-30T11:22:37.128Z,68.50
2022-10-30T11:25:26.804Z,68.90
2022-10-30T11:27:59.630Z,69.10
2022-10-30T11:30:28.918Z,68.30
2022-10-30T11:32:59.562Z,67.80
2022-10-30T11:35:26.701Z,67.50
2022-10-30T11:38:14.214Z,67.00
2022-10-30T11:40:48.625Z,67.30
2022-10-30T11:43:19.997Z,66.80
2022-10-30T11:45:47.313Z,66.50
2022-10-30T11:48:26.035Z,66.60
2022-10-30T11:51:00.052Z,66.10
2022-10-30T11:53:38.694Z,65.90
2022-10-30T11:56:18.696Z,66.00
2022-10-30T11:58:59.890Z,66.00
2022-10-30T12:01:35.837Z,66.00
2022-10-30T12:04:35.120Z,65.80
2022-10-30T12:07:16.986Z,66.30
2022-10-30T12:09:48.003Z,65.80
2022-10-30T12:12:38.477Z,65.60
2022-10-30T12:15:14.543Z,66.10
2022-10-30T12:17:50.334Z,65.70
2022-10-30T12:20:17.350Z,65.90
2022-10-30T12:22:44.223Z,66.00
2022-10-30T12:25:31.360Z,66.10
2022-10-30T12:28:05.596Z,66.30
2022-10-30T12:30:37.042Z,66.20
2022-10-30T12:33:09.281Z,67.10
2022-10-30T12:35:35.910Z,66.00
2022-10-30T12:38:07.323Z,66.50
2022-10-30T12:40:42.471Z,66.70
2022-10-30T12:43:24.328Z,66.50
2022-10-30T12:46:19.389Z,66.70
2022-10-30T12:49:16.497Z,66.40
2022-10-30T12:51:56.508Z,66.50
2022-10-30T12:54:33.987Z,66.60
2022-10-30T12:57:16.740Z,66.40
2022-10-30T13:00:05.238Z,66.50
2022-10-30T13:03:00.402Z,66.60
2022-10-30T13:05:34.345Z,66.80
2022-10-30T13:08:05.195Z,66.50
2022-10-30T13:10:44.324Z,66.50
2022-10-30T13:13:20.641Z,66.30
2022-10-30T13:15:51.409Z,66.10
2022-10-30T13:18:24.107Z,65.70
2022-10-30T13:21:03.116Z,65.50
2022-10-30T13:23:50.942Z,65.70
2022-10-30T13:26:17.707Z,65.70
2022-10-30T13:29:01.549Z,65.50
2022-10-30T13:31:52.938Z,65.50
2022-10-30T13:34:57.137Z,65.90
2022-10-30T13:37:49.623Z,65.80
2022-10-30T13:40:32.065Z,66.20
2022-10-30T13:43:30.091Z,66.10
2022-10-30T13:46:09.550Z,66.40
2022-10-30T13:48:52.802Z,66.40
2022-10-30T13:51:30.846Z,66.20
2022-10-30T13:54:20.629Z,66.20
2022-10-30T13:56:48.702Z,66.30
2022-10-30T13:59:47.205Z,66.30
2022-10-30T14:02:41.369Z,66.60
2022-10-30T14:05:14.306Z,66.50
2022-10-30T14:08:11.788Z,66.80
2022-10-30T14:10:47.407Z,66.80
2022-10-30T14:13:48.242Z,66.60
2022-10-30T14:16:53.838Z,66.90
2022-10-30T14:19:20.631Z,66.70
2022-10-30T14:21:58.306Z,66.50
2022-10-30T14:24:29.538Z,66.50
2022-10-30T14:27:05.625Z,66.40
2022-10-30T14:29:38.299Z,66.30
2022-10-30T14:32:14.051Z,66.20
2022-10-30T14:34:45.297Z,66.20
2022-10-30T14:37:13.097Z,66.20
2022-10-30T14:39:44.796Z,66.10
2022-10-30T14:42:38.689Z,66.30
2022-10-30T14:45:16.389Z,66.50
2022-10-30T14:47:55.545Z,66.40
2022-10-30T14:50:37.128Z,66.30
2022-10-30T14:53:55.228Z,66.30
2022-10-30T14:56:41.391Z,66.30
2022-10-30T14:59:13.893Z,66.40
2022-10-30T15:01:59.691Z,66.40
2022-10-30T15:05:12.846Z,66.40
2022-10-30T15:08:05.869Z,66.50
2022-10-30T15:10:36.627Z,66.40
2022-10-30T15:13:15.052Z,66.60
2022-10-30T15:15:43.096Z,66.60
2022-10-30T15:18:16.009Z,66.80
2022-10-30T15:20:42.913Z,66.80
2022-10-30T15:23:18.902Z,66.80
2022-10-30T15:25:55.023Z,66.90
2022-10-30T15:31:06.384Z,67.20
2022-10-30T15:33:37.648Z,67.20
2022-10-30T15:36:05.528Z,67.30
2022-10-30T15:38:32.420Z,67.60
2022-10-30T15:41:02.058Z,67.70
2022-10-30T15:43:35.057Z,67.80
2022-10-30T15:46:08.253Z,68.10
2022-10-30T15:48:35.503Z,68.20
2022-10-30T15:51:21.085Z,68.40
2022-10-30T15:53:54.716Z,68.50
2022-10-30T15:56:31.194Z,68.70
2022-10-30T15:59:06.471Z,68.80
2022-10-30T16:01:44.503Z,69.10
2022-10-30T16:04:18.570Z,69.40
2022-10-30T16:06:57.708Z,69.60
2022-10-30T16:09:25.833Z,69.70
2022-10-30T16:11:55.286Z,69.90
2022-10-30T16:14:29.854Z,70.20
2022-10-30T16:17:00.442Z,70.40
2022-10-30T16:19:30.555Z,70.40
2022-10-30T16:21:59.442Z,70.50
2022-10-30T16:24:32.473Z,70.70
2022-10-30T16:27:13.687Z,70.70
2022-10-30T16:29:41.007Z,70.60
2022-10-30T16:32:17.660Z,70.70
2022-10-30T16:34:46.118Z,70.90
2022-10-30T16:37:21.800Z,71.10
2022-10-30T16:39:50.881Z,71.10
2022-10-30T16:42:22.303Z,71.40
2022-10-30T16:45:07.594Z,71.50
2022-10-30T16:47:38.878Z,71.70
2022-10-30T16:50:07.368Z,71.80
2022-10-30T16:52:41.006Z,71.90
2022-10-30T16:55:20.178Z,72.10
2022-10-30T16:57:53.150Z,72.20
2022-10-30T17:00:25.903Z,72.40
2022-10-30T17:02:56.172Z,72.50
2022-10-30T17:05:30.247Z,72.70
2022-10-30T17:08:04.215Z,72.80
2022-10-30T17:10:36.933Z,72.80
2022-10-30T17:13:30.841Z,72.90
2022-10-30T17:15:57.827Z,72.70
2022-10-30T17:18:35.396Z,73.00
2022-10-30T17:21:11.755Z,73.10
2022-10-30T17:23:48.497Z,73.10
2022-10-30T17:26:16.751Z,73.30
2022-10-30T17:28:44.560Z,73.30
2022-10-30T17:31:40.127Z,73.30
2022-10-30T17:34:18.273Z,73.20
2022-10-30T17:36:46.613Z,73.30
2022-10-30T17:39:13.715Z,73.40
2022-10-30T17:41:41.129Z,73.40
2022-10-30T17:44:21.125Z,73.40
2022-10-30T17:46:47.930Z,73.40
2022-10-30T17:49:24.984Z,73.50
2022-10-30T17:51:51.817Z,73.60
2022-10-30T17:54:18.573Z,73.70
2022-10-30T17:56:45.427Z,73.90
2022-10-30T17:59:12.193Z,73.90
2022-10-30T18:01:40.999Z,74.10
2022-10-30T18:04:20.879Z,74.20
2022-10-30T18:06:51.333Z,74.30
2022-10-30T18:09:18.109Z,74.40
2022-10-30T18:11:44.876Z,74.50
2022-10-30T18:14:12.346Z,74.70
2022-10-30T18:16:39.423Z,74.80
2022-10-30T18:19:10.175Z,74.90
2022-10-30T18:21:37.298Z,74.90
2022-10-30T18:24:12.694Z,74.90
2022-10-30T18:26:40.900Z,75.10
2022-10-30T18:29:08.542Z,75.00
2022-10-30T18:31:36.105Z,75.10
2022-10-30T18:34:03.293Z,75.20
2022-10-30T18:36:30.895Z,75.30
2022-10-30T18:38:58.306Z,75.30
2022-10-30T18:41:36.650Z,75.50
2022-10-30T18:44:05.606Z,75.50
2022-10-30T18:46:34.085Z,75.70
2022-10-30T18:49:01.030Z,75.80
2022-10-30T18:51:28.556Z,75.80
2022-10-30T18:53:56.928Z,75.90
2022-10-30T18:56:29.026Z,75.90
2022-10-30T18:59:01.556Z,75.90
2022-10-30T19:01:32.617Z,76.00
2022-10-30T19:04:02.059Z,76.00
2022-10-30T19:06:29.148Z,76.00
2022-10-30T19:08:57.451Z,76.10
2022-10-30T19:11:25.400Z,76.20
2022-10-30T19:13:53.610Z,76.20
2022-10-30T19:16:21.706Z,76.20
2022-10-30T19:18:48.825Z,76.20
2022-10-30T19:21:24.945Z,76.30
2022-10-30T19:23:51.881Z,76.30
2022-10-30T19:26:18.762Z,76.20
2022-10-30T19:28:46.008Z,76.10
2022-10-30T19:31:17.604Z,76.10
2022-10-30T19:33:44.912Z,76.10
2022-10-30T19:36:36.297Z,76.10
2022-10-30T19:39:11.342Z,76.00
2022-10-30T19:41:38.951Z,76.20
2022-10-30T19:44:06.866Z,76.10
2022-10-30T19:46:33.709Z,76.20
2022-10-30T19:49:00.835Z,76.30
2022-10-30T19:51:28.622Z,76.40
2022-10-30T19:53:56.085Z,76.40
2022-10-30T19:56:23.483Z,76.40
2022-10-30T19:58:50.493Z,76.30
2022-10-30T20:01:17.594Z,76.40
2022-10-30T20:03:44.558Z,76.40
2022-10-30T20:06:14.703Z,76.50
2022-10-30T20:08:44.706Z,76.40
2022-10-30T20:11:11.553Z,76.50
2022-10-30T20:13:38.397Z,76.40
2022-10-30T20:16:06.105Z,76.40
2022-10-30T20:18:38.103Z,76.40
2022-10-30T20:21:13.252Z,76.20
2022-10-30T20:23:40.186Z,76.20
2022-10-30T20:26:28.124Z,76.10
2022-10-30T20:28:55.693Z,76.10
2022-10-30T20:31:22.663Z,76.10
2022-10-30T20:33:49.462Z,76.10
2022-10-30T20:36:16.297Z,76.10
2022-10-30T20:38:46.129Z,76.10
2022-10-30T20:41:28.130Z,76.20
2022-10-30T20:43:55.741Z,76.20
2022-10-30T20:46:22.627Z,76.20
2022-10-30T20:48:49.570Z,76.20
2022-10-30T20:51:16.574Z,76.30
2022-10-30T20:53:43.391Z,76.30
2022-10-30T20:56:11.602Z,76.40
2022-10-30T20:58:38.578Z,76.50
2022-10-30T21:01:05.694Z,76.60
2022-10-30T21:03:32.468Z,76.60
2022-10-30T21:06:01.649Z,76.70
2022-10-30T21:08:31.407Z,76.70
2022-10-30T21:11:01.140Z,76.80
2022-10-30T21:13:28.964Z,76.80
2022-10-30T21:16:00.741Z,76.80
2022-10-30T21:18:27.650Z,76.80
2022-10-30T21:20:54.434Z,76.70
2022-10-30T21:23:21.506Z,76.70
2022-10-30T21:25:48.375Z,76.80
2022-10-30T21:28:15.170Z,76.80
2022-10-30T21:30:41.851Z,76.80
2022-10-30T21:33:08.566Z,76.80
2022-10-30T21:35:35.337Z,76.80
2022-10-30T21:38:02.513Z,76.80
2022-10-30T21:40:29.310Z,76.80
2022-10-30T21:42:58.544Z,76.80
2022-10-30T21:45:28.171Z,76.80
2022-10-30T21:47:54.854Z,76.70
2022-10-30T21:50:21.618Z,76.70
2022-10-30T21:52:48.378Z,76.70
2022-10-30T21:55:15.194Z,76.80
2022-10-30T21:57:41.953Z,76.70
2022-10-30T22:00:09.181Z,76.80
2022-10-30T22:02:35.853Z,77.00
2022-10-30T22:05:02.645Z,77.00
2022-10-30T22:07:29.409Z,77.10
2022-10-30T22:09:56.361Z,77.20
2022-10-30T22:12:23.160Z,77.20
2022-10-30T22:14:49.835Z,77.30
2022-10-30T22:17:18.833Z,77.30
2022-10-30T22:19:45.500Z,77.50
2022-10-30T22:22:12.265Z,77.50
2022-10-30T22:24:39.111Z,77.50
2022-10-30T22:27:05.814Z,77.60
2022-10-30T22:29:32.486Z,77.60
2022-10-30T22:31:59.325Z,77.80
2022-10-30T22:34:26.050Z,77.80
2022-10-30T22:36:52.835Z,77.90
2022-10-30T22:39:19.909Z,78.00
2022-10-30T22:41:46.842Z,78.00
2022-10-30T22:44:17.347Z,78.20
2022-10-30T22:46:44.516Z,78.30
2022-10-30T22:49:14.100Z,78.30
2022-10-30T22:51:40.867Z,78.30
2022-10-30T22:54:12.254Z,78.30
2022-10-30T22:56:40.492Z,78.50
2022-10-30T22:59:10.697Z,78.50
2022-10-30T23:01:38.873Z,78.40
2022-10-30T23:04:07.687Z,78.40
2022-10-30T23:06:35.790Z,78.50
2022-10-30T23:09:05.787Z,78.40
2022-10-30T23:11:33.317Z,78.50
2022-10-30T23:14:00.114Z,78.50
2022-10-30T23:16:29.880Z,78.60
2022-10-30T23:18:58.384Z,78.70
2022-10-30T23:21:27.579Z,78.70
2022-10-30T23:23:57.587Z,78.50
2022-10-30T23:26:32.581Z,78.50
2022-10-30T23:29:00.456Z,78.50
2022-10-30T23:31:35.884Z,78.50
2022-10-30T23:34:09.463Z,78.60
2022-10-30T23:36:36.887Z,78.70
2022-10-30T23:39:07.007Z,79.60
2022-10-30T23:41:36.236Z,78.90
2022-10-30T23:44:05.726Z,78.90
2022-10-30T23:46:34.384Z,79.00
2022-10-30T23:49:02.484Z,79.00
2022-10-30T23:51:29.359Z,79.00
2022-10-30T23:53:56.044Z,79.10
2022-10-30T23:56:23.107Z,79.20
2022-10-30T23:58:51.473Z,79.20
